createdAt,value
2019-01-24T08:54:27.577Z,99536.67
2019-01-24T08:59:31.622Z,99535.61
2019-01-24T09:04:35.738Z,99535.61
2019-01-24T09:09:39.962Z,99538.95
2019-01-24T09:14:44.079Z,99538.95
2019-01-24T09:19:48.279Z,99548.62
2019-01-24T09:24:52.638Z,99563.03
2019-01-24T09:29:56.816Z,99542.34
2019-01-24T09:35:01.037Z,99550.20
2019-01-24T09:40:08.034Z,99559.19
2019-01-24T09:45:18.168Z,99566.83
2019-01-24T09:50:23.446Z,99571.84
2019-01-24T09:55:27.853Z,99581.16
2019-01-24T10:00:34.044Z,99570.28
2019-01-24T10:05:38.469Z,99570.17
2019-01-24T10:10:42.598Z,99582.41
2019-01-24T10:15:46.732Z,99570.40
2019-01-24T10:20:50.914Z,99571.59
2019-01-24T10:25:55.011Z,99571.59
2019-01-24T10:30:59.109Z,99584.77
2019-01-24T10:36:03.400Z,99584.77
2019-01-24T10:41:07.741Z,99581.80
2019-01-24T10:46:12.090Z,99588.89
2019-01-24T10:51:16.281Z,99588.89
2019-01-24T10:56:20.420Z,99588.77
2019-01-24T11:01:24.736Z,99583.35
2019-01-24T11:06:29.001Z,99574.73
2019-01-24T11:11:33.260Z,99583.89
2019-01-24T11:16:37.564Z,99584.79
2019-01-24T11:21:41.861Z,99577.17
2019-01-24T11:26:46.149Z,99577.17
2019-01-24T11:31:50.356Z,99586.84
2019-01-24T11:36:57.183Z,99587.93
2019-01-24T11:42:00.615Z,99589.02
2019-01-24T11:47:04.948Z,99586.89
2019-01-24T11:52:09.424Z,99584.54
2019-01-24T11:57:13.826Z,99589.64
2019-01-24T12:02:18.133Z,99589.53
2019-01-24T12:07:22.446Z,99589.53
2019-01-24T12:12:26.638Z,99579.11
2019-01-24T12:17:30.963Z,99578.03
2019-01-24T12:22:35.283Z,99577.17
2019-01-24T12:27:39.571Z,99573.35
2019-01-24T12:32:43.936Z,99573.11
2019-01-24T12:37:48.431Z,99576.64
2019-01-24T12:42:52.702Z,99579.80
2019-01-24T12:47:56.834Z,99569.39
2019-01-24T12:53:11.285Z,99580.09
2019-01-24T12:58:15.561Z,99600.97
2019-01-24T13:03:19.632Z,99598.30
2019-01-24T13:08:23.829Z,99580.18
2019-01-24T13:13:32.279Z,99580.94
2019-01-24T13:18:36.534Z,99580.94
2019-01-24T13:23:40.787Z,99578.12
2019-01-24T13:28:44.979Z,99583.78
2019-01-24T13:33:49.266Z,99597.94
2019-01-24T13:38:53.450Z,99597.94
2019-01-24T13:43:57.595Z,99592.25
2019-01-24T13:49:01.720Z,99596.19
2019-01-24T13:54:05.988Z,99598.97
2019-01-24T13:59:10.394Z,99605.39
2019-01-24T14:04:18.250Z,99620.17
2019-01-24T14:09:22.760Z,99620.17
2019-01-24T14:14:27.368Z,99616.53
2019-01-24T14:19:31.533Z,99610.56
2019-01-24T14:24:35.851Z,99615.70
2019-01-24T14:29:40.216Z,99615.70
2019-01-24T14:34:44.542Z,99617.29
2019-01-24T14:39:49.138Z,99626.09
2019-01-24T14:44:53.336Z,99631.05
2019-01-24T14:49:58.026Z,99633.81
2019-01-24T14:55:02.205Z,99643.41
2019-01-24T15:00:19.907Z,99638.31
2019-01-24T15:05:24.425Z,99642.44
2019-01-24T15:10:29.000Z,99643.95
2019-01-24T15:15:33.406Z,99656.61
2019-01-24T15:20:38.020Z,99656.61
2019-01-24T15:25:42.766Z,99648.11
2019-01-24T15:30:47.834Z,99658.64
2019-01-24T15:35:52.470Z,99660.78
2019-01-24T15:40:57.440Z,99665.00
2019-01-24T15:46:02.676Z,99659.38
2019-01-24T15:51:07.364Z,99682.62
2019-01-24T15:56:12.450Z,99680.87
2019-01-24T16:01:17.613Z,99677.55
2019-01-24T16:06:22.598Z,99696.63
2019-01-24T16:11:27.702Z,99710.59
2019-01-24T16:16:32.754Z,99710.59
2019-01-24T16:21:37.833Z,99700.92
2019-01-24T16:26:42.874Z,99720.75
2019-01-24T16:31:49.140Z,99723.70
2019-01-24T16:36:54.304Z,99723.70
2019-01-24T16:42:00.855Z,99727.37
2019-01-24T16:47:06.637Z,99727.37
2019-01-24T16:52:12.114Z,99733.73
2019-01-24T16:57:17.746Z,99736.79
2019-01-24T17:02:22.548Z,99738.62
2019-01-24T17:07:28.207Z,99737.97
2019-01-24T17:12:33.499Z,99733.76
2019-01-24T17:17:38.413Z,99739.55
2019-01-24T17:22:43.592Z,99734.86
2019-01-24T17:27:48.856Z,99740.36
2019-01-24T17:32:54.796Z,99735.20
2019-01-24T17:38:01.072Z,99735.20
2019-01-24T17:43:07.070Z,99721.52
2019-01-24T17:48:12.164Z,99735.13
2019-01-24T17:53:20.023Z,99736.97
2019-01-24T17:58:25.681Z,99744.55
2019-01-24T18:03:30.912Z,99744.55
2019-01-24T18:08:36.150Z,99740.99
2019-01-24T18:13:42.356Z,99754.56
2019-01-24T18:18:48.017Z,99754.56
2019-01-24T18:23:53.513Z,99756.56
2019-01-24T18:29:00.422Z,99766.36
2019-01-24T18:34:06.352Z,99765.25
2019-01-24T18:39:13.672Z,99777.63
2019-01-24T18:44:18.963Z,99783.28
2019-01-24T18:49:24.835Z,99791.38
2019-01-24T18:54:30.624Z,99814.38
2019-01-24T18:59:36.547Z,99813.14
2019-01-24T19:04:43.366Z,99813.14
2019-01-24T19:09:49.597Z,99827.77
2019-01-24T19:20:02.457Z,99825.92
2019-01-24T19:25:09.512Z,99827.86
2019-01-24T19:30:19.934Z,99827.86
2019-01-24T19:35:26.316Z,99820.88
2019-01-24T19:40:33.116Z,99806.56
2019-01-24T19:45:39.883Z,99806.56
2019-01-24T19:50:46.382Z,99842.59
2019-01-24T19:55:52.855Z,99828.48
2019-01-24T20:00:59.555Z,99834.51
2019-01-24T20:06:05.836Z,99845.75
2019-01-24T20:11:12.155Z,99849.80
2019-01-24T20:16:18.312Z,99860.48
2019-01-24T20:21:24.796Z,99861.41
2019-01-24T20:26:30.864Z,99862.59
2019-01-24T20:31:37.562Z,99862.59
2019-01-24T20:36:43.516Z,99872.86
2019-01-24T20:41:49.310Z,99877.34
2019-01-24T20:46:56.066Z,99877.34
2019-01-24T20:52:01.505Z,99876.27
2019-01-24T20:57:06.687Z,99870.16
2019-01-24T21:02:12.102Z,99870.16
2019-01-24T21:07:17.030Z,99887.30
2019-01-24T21:12:22.668Z,99887.30
2019-01-24T21:17:28.202Z,99884.91
2019-01-24T21:22:32.923Z,99886.34
2019-01-24T21:27:37.387Z,99888.30
2019-01-24T21:32:42.333Z,99888.39
2019-01-24T21:37:47.102Z,99885.58
2019-01-24T21:42:52.313Z,99884.45
2019-01-24T21:47:56.867Z,99884.45
2019-01-24T21:53:01.341Z,99890.89
2019-01-24T21:58:07.464Z,99886.85
2019-01-24T22:03:11.736Z,99886.33
2019-01-24T22:08:16.051Z,99887.63
2019-01-24T22:13:20.403Z,99885.27
2019-01-24T22:18:24.626Z,99885.27
2019-01-24T22:23:28.804Z,99875.20
2019-01-24T22:28:33.023Z,99869.42
2019-01-24T22:33:37.188Z,99869.42
2019-01-24T22:38:41.248Z,99883.48
2019-01-24T22:43:45.358Z,99888.04
2019-01-24T22:48:49.551Z,99892.28
2019-01-24T22:53:53.713Z,99892.28
2019-01-24T22:58:57.866Z,99888.61
2019-01-24T23:04:14.321Z,99873.16
2019-01-24T23:09:18.397Z,99890.20
2019-01-24T23:14:22.723Z,99881.06
2019-01-24T23:19:26.881Z,99886.53
2019-01-24T23:24:31.086Z,99872.75
2019-01-24T23:29:35.353Z,99881.59
2019-01-24T23:34:39.584Z,99882.70
2019-01-24T23:39:43.806Z,99879.52
2019-01-24T23:44:48.205Z,99872.95
2019-01-24T23:49:52.348Z,99872.95
2019-01-24T23:54:56.414Z,99880.33
